Time;durP1;ratioP1;P1;durP2;ratioP2;P2;SDS_P1;SDS_P2;PMS_P1;PMS_P2;Temp;Humidity;BMP_temperature;BMP_pressure;BME280_temperature;BME280_humidity;BME280_pressure;Samples;Min_cycle;Max_cycle;Signal;HPM_P1;HPM_P2
2021/10/16 00:00:03;;;;;;;8.90;5.78;;;5.90;99.90;;;;;;8395330;28;20086;-67
2021/10/16 00:04:04;;;;;;;9.18;5.85;;;6.10;99.90;;;;;;8394505;28;20037;-67
2021/10/16 00:08:05;;;;;;;10.63;6.28;;;6.00;99.90;;;;;;8394434;28;20024;-67
2021/10/16 00:12:06;;;;;;;10.50;6.05;;;5.80;99.90;;;;;;8394995;28;20074;-67
2021/10/16 00:16:06;;;;;;;8.55;5.63;;;5.80;99.90;;;;;;8394304;28;20502;-67
2021/10/16 00:20:08;;;;;;;9.68;6.20;;;5.40;99.90;;;;;;8393511;28;20078;-66
2021/10/16 00:24:09;;;;;;;11.20;5.57;;;5.60;99.90;;;;;;8394365;28;20397;-67
2021/10/16 00:28:09;;;;;;;8.80;5.43;;;5.30;99.90;;;;;;8393790;28;20040;-67
2021/10/16 00:32:10;;;;;;;8.20;5.05;;;5.10;99.90;;;;;;8392685;28;20020;-67
2021/10/16 00:36:11;;;;;;;9.32;5.05;;;4.90;99.90;;;;;;8391190;28;20063;-67
2021/10/16 00:40:12;;;;;;;8.20;5.13;;;4.80;99.90;;;;;;8393246;28;20031;-67
2021/10/16 00:44:22;;;;;;;7.88;5.60;;;5.00;99.90;;;;;;8393193;28;20036;-67
2021/10/16 00:48:23;;;;;;;9.32;5.82;;;5.00;99.90;;;;;;8393297;28;20028;-67
2021/10/16 00:52:23;;;;;;;9.15;5.35;;;5.10;99.90;;;;;;8393480;28;20465;-67
2021/10/16 00:56:24;;;;;;;9.25;5.35;;;4.90;99.90;;;;;;8393169;28;20394;-67
2021/10/16 01:00:24;;;;;;;7.68;5.70;;;4.80;99.90;;;;;;8393384;28;20671;-67
2021/10/16 01:04:25;;;;;;;8.38;5.40;;;4.60;99.90;;;;;;8391468;28;20119;-67
2021/10/16 01:08:25;;;;;;;8.75;5.15;;;4.60;99.90;;;;;;8391733;28;20037;-67
2021/10/16 01:12:29;;;;;;;9.38;5.53;;;4.50;99.90;;;;;;8392880;28;20502;-67
2021/10/16 01:16:30;;;;;;;8.82;5.65;;;4.60;99.90;;;;;;8362774;28;20041;-67
2021/10/16 01:20:32;;;;;;;9.20;5.50;;;4.60;99.90;;;;;;8359601;28;20395;-67
2021/10/16 01:24:35;;;;;;;7.38;5.13;;;4.70;99.90;;;;;;8359209;28;20706;-67
2021/10/16 01:28:36;;;;;;;8.35;5.45;;;4.60;99.90;;;;;;8359145;28;20467;-67
2021/10/16 01:32:38;;;;;;;10.90;4.78;;;4.60;99.90;;;;;;8359274;28;20029;-67
2021/10/16 01:36:44;;;;;;;8.48;5.68;;;4.30;99.90;;;;;;8359134;28;20029;-67
2021/10/16 01:40:44;;;;;;;8.82;5.78;;;4.00;99.90;;;;;;8359113;28;20029;-67
2021/10/16 01:44:45;;;;;;;7.93;5.43;;;3.80;99.90;;;;;;8358542;28;20064;-67
2021/10/16 01:48:45;;;;;;;137.82;125.35;;;4.00;99.90;;;;;;8372100;28;20036;-67
2021/10/16 01:52:47;;;;;;;8.95;4.53;;;4.10;99.90;;;;;;8392085;28;20024;-67
2021/10/16 01:56:47;;;;;;;7.30;4.15;;;4.30;99.90;;;;;;8391944;28;20086;-67
2021/10/16 02:00:48;;;;;;;7.25;4.90;;;4.00;99.90;;;;;;8392227;28;20017;-68
2021/10/16 02:04:49;;;;;;;8.32;5.00;;;4.10;99.90;;;;;;8390815;28;20025;-66
2021/10/16 02:08:49;;;;;;;9.10;5.50;;;4.30;99.90;;;;;;8390793;28;20418;-67
2021/10/16 02:12:50;;;;;;;8.55;5.85;;;4.10;99.90;;;;;;8391922;28;20119;-67
2021/10/16 02:16:50;;;;;;;10.15;6.32;;;4.00;99.90;;;;;;8391145;28;20668;-67
2021/10/16 02:20:51;;;;;;;11.02;5.38;;;4.00;99.90;;;;;;8391924;28;20033;-67
2021/10/16 02:24:52;;;;;;;10.40;5.90;;;4.20;99.90;;;;;;8391237;28;20032;-67
2021/10/16 02:28:52;;;;;;;11.13;6.85;;;4.20;99.90;;;;;;8390069;28;20433;-67
2021/10/16 02:32:53;;;;;;;10.77;6.88;;;4.00;99.90;;;;;;8391318;28;20024;-67
2021/10/16 02:36:54;;;;;;;8.77;6.35;;;4.30;99.90;;;;;;8390067;28;20070;-67
2021/10/16 02:40:54;;;;;;;10.55;7.00;;;4.10;99.90;;;;;;8391252;28;20094;-67
2021/10/16 02:44:56;;;;;;;10.77;6.22;;;4.20;99.90;;;;;;8389085;28;20024;-67
2021/10/16 02:48:56;;;;;;;10.25;6.10;;;4.10;99.90;;;;;;8390514;28;20095;-67
2021/10/16 02:52:57;;;;;;;9.40;6.60;;;4.20;99.90;;;;;;8390596;28;20044;-67
2021/10/16 02:56:58;;;;;;;10.25;6.22;;;4.20;99.90;;;;;;8390471;28;20025;-66
2021/10/16 03:00:58;;;;;;;11.15;6.40;;;4.10;99.90;;;;;;8391052;28;20154;-67
2021/10/16 03:04:59;;;;;;;13.43;6.95;;;4.00;99.90;;;;;;8394891;28;20031;-67
2021/10/16 03:08:59;;;;;;;12.73;7.55;;;4.20;99.90;;;;;;8396865;28;20051;-67
2021/10/16 03:13:00;;;;;;;9.63;6.57;;;3.90;99.90;;;;;;8396515;28;20034;-66
2021/10/16 03:17:00;;;;;;;11.30;6.88;;;3.90;99.90;;;;;;8396010;28;20063;-66
2021/10/16 03:21:01;;;;;;;13.27;6.88;;;3.80;99.90;;;;;;8396484;28;20025;-66
2021/10/16 03:25:01;;;;;;;10.48;6.35;;;3.80;99.90;;;;;;8395938;28;20041;-66
2021/10/16 03:29:02;;;;;;;11.38;6.90;;;3.80;99.90;;;;;;8396048;28;20099;-66
2021/10/16 03:33:03;;;;;;;12.85;6.88;;;3.90;99.90;;;;;;8396136;28;20036;-66
2021/10/16 03:37:03;;;;;;;13.45;7.45;;;3.70;99.90;;;;;;8395576;28;20523;-66
2021/10/16 03:41:04;;;;;;;11.45;6.55;;;3.50;99.90;;;;;;8396000;28;20097;-66
2021/10/16 03:45:04;;;;;;;11.20;7.07;;;3.40;99.90;;;;;;8395000;28;20449;-67
2021/10/16 03:49:05;;;;;;;11.13;7.40;;;3.30;99.90;;;;;;8395380;28;20036;-66
2021/10/16 03:53:05;;;;;;;10.82;6.70;;;3.40;99.90;;;;;;8393824;28;20166;-66
2021/10/16 03:57:06;;;;;;;10.52;6.95;;;3.40;99.90;;;;;;8394937;28;20023;-67
2021/10/16 04:01:07;;;;;;;13.20;7.28;;;3.30;99.90;;;;;;8395295;28;20033;-67
2021/10/16 04:05:08;;;;;;;11.80;7.22;;;3.10;99.90;;;;;;8393670;28;20564;-67
2021/10/16 04:09:08;;;;;;;14.57;7.20;;;3.20;99.90;;;;;;8394477;28;20047;-67
2021/10/16 04:13:09;;;;;;;13.85;7.38;;;3.10;99.90;;;;;;8394369;28;20047;-66
2021/10/16 04:17:09;;;;;;;14.20;7.95;;;3.00;99.90;;;;;;8394131;28;20066;-66
2021/10/16 04:21:10;;;;;;;13.90;8.32;;;3.30;99.90;;;;;;8394544;28;20032;-67
2021/10/16 04:25:10;;;;;;;20.13;8.63;;;2.90;99.90;;;;;;8392864;28;20142;-66
2021/10/16 04:29:11;;;;;;;20.95;9.50;;;3.10;99.90;;;;;;8394282;28;20024;-67
2021/10/16 04:33:11;;;;;;;20.00;9.85;;;3.00;99.90;;;;;;8394233;28;20070;-66
2021/10/16 04:37:14;;;;;;;53.88;10.13;;;2.80;99.90;;;;;;8393750;28;20483;-66
2021/10/16 04:41:16;;;;;;;23.00;9.57;;;3.10;99.90;;;;;;8394010;28;20048;-66
2021/10/16 04:45:17;;;;;;;47.22;10.35;;;2.90;99.90;;;;;;8393533;28;20525;-66
2021/10/16 04:49:17;;;;;;;78.57;11.13;;;3.20;99.90;;;;;;8393636;28;20227;-66
2021/10/16 04:53:18;;;;;;;46.38;9.60;;;3.10;99.90;;;;;;8392284;28;20024;-66
2021/10/16 04:57:19;;;;;;;86.03;10.35;;;3.40;99.90;;;;;;8392099;28;20036;-66
2021/10/16 05:01:19;;;;;;;40.05;11.27;;;3.20;99.90;;;;;;8392479;28;20035;-66
2021/10/16 05:05:20;;;;;;;23.50;12.20;;;3.10;99.90;;;;;;8392948;28;20036;-67
2021/10/16 05:09:20;;;;;;;32.08;10.32;;;3.00;99.90;;;;;;8386044;28;20514;-67
2021/10/16 05:13:21;;;;;;;28.13;11.98;;;2.90;99.90;;;;;;8375248;28;20033;-66
2021/10/16 05:17:22;;;;;;;72.47;20.65;;;2.90;99.90;;;;;;8376753;28;20044;-67
2021/10/16 05:21:23;;;;;;;49.42;20.55;;;3.20;99.90;;;;;;8385421;28;20107;-66
2021/10/16 05:25:23;;;;;;;28.27;13.57;;;3.30;99.90;;;;;;8374294;28;20016;-66
2021/10/16 05:29:24;;;;;;;31.48;15.40;;;3.30;99.90;;;;;;8374003;28;20024;-66
2021/10/16 05:33:25;;;;;;;32.67;14.45;;;3.40;99.90;;;;;;8379748;28;20037;-66
2021/10/16 05:37:25;;;;;;;26.48;14.27;;;3.20;99.90;;;;;;8385243;28;20032;-66
2021/10/16 05:41:26;;;;;;;53.78;11.68;;;3.20;99.90;;;;;;8372654;28;20398;-66
2021/10/16 05:45:27;;;;;;;19.08;10.55;;;3.30;99.90;;;;;;8376495;28;20029;-66
2021/10/16 05:49:29;;;;;;;22.10;9.70;;;3.40;99.90;;;;;;8374548;28;21224;-66
2021/10/16 05:53:29;;;;;;;39.50;9.43;;;3.40;99.90;;;;;;8367776;28;20021;-66
2021/10/16 05:57:30;;;;;;;38.05;10.27;;;3.50;99.90;;;;;;8358416;28;20025;-66
2021/10/16 06:01:30;;;;;;;38.63;10.85;;;3.40;99.90;;;;;;8358342;28;20064;-66
2021/10/16 06:05:31;;;;;;;67.97;11.05;;;3.00;99.90;;;;;;8358345;28;20079;-66
2021/10/16 06:09:31;;;;;;;29.15;10.88;;;3.10;99.90;;;;;;8372008;28;20025;-67
2021/10/16 06:13:32;;;;;;;36.88;11.57;;;3.40;99.90;;;;;;8390815;28;20035;-67
2021/10/16 06:17:33;;;;;;;58.13;12.82;;;3.40;99.90;;;;;;8370316;28;20514;-66
2021/10/16 06:21:33;;;;;;;39.28;12.57;;;3.60;99.90;;;;;;8370694;28;20033;-67
2021/10/16 06:25:34;;;;;;;40.13;12.15;;;3.60;99.90;;;;;;8356725;28;20095;-66
2021/10/16 06:29:35;;;;;;;63.95;13.55;;;3.50;99.90;;;;;;8359001;28;20053;-66
2021/10/16 06:33:36;;;;;;;25.55;11.88;;;3.60;99.90;;;;;;8377810;28;20033;-66
2021/10/16 06:37:36;;;;;;;35.67;13.43;;;3.70;99.90;;;;;;8377230;28;20056;-66
2021/10/16 06:41:37;;;;;;;36.75;13.35;;;3.70;99.90;;;;;;8378243;28;20044;-67
2021/10/16 06:45:37;;;;;;;34.42;12.98;;;3.80;99.90;;;;;;8382253;28;20040;-66
2021/10/16 06:49:38;;;;;;;24.42;12.75;;;3.90;99.90;;;;;;8385236;28;20032;-66
2021/10/16 06:53:38;;;;;;;48.70;13.10;;;4.00;99.90;;;;;;8374032;28;20487;-66
2021/10/16 06:57:39;;;;;;;56.97;11.30;;;4.20;99.90;;;;;;8383921;28;20032;-66
2021/10/16 07:01:40;;;;;;;30.27;12.35;;;4.40;99.90;;;;;;8371704;28;20106;-67
2021/10/16 07:05:41;;;;;;;46.30;13.52;;;4.50;99.90;;;;;;8374578;28;20137;-66
2021/10/16 07:09:42;;;;;;;68.65;14.23;;;4.60;99.90;;;;;;8378630;28;20530;-66
2021/10/16 07:13:42;;;;;;;61.75;14.45;;;4.90;99.90;;;;;;8372537;28;20025;-66
2021/10/16 07:17:43;;;;;;;31.80;17.25;;;5.10;99.90;;;;;;8381809;28;20052;-67
2021/10/16 07:21:43;;;;;;;24.90;14.25;;;5.20;99.90;;;;;;8389651;28;20036;-67
2021/10/16 07:25:44;;;;;;;22.73;13.05;;;5.30;99.90;;;;;;8395427;28;20170;-67
2021/10/16 07:29:45;;;;;;;21.23;12.70;;;5.70;99.90;;;;;;8395048;28;20021;-66
2021/10/16 07:33:46;;;;;;;17.90;10.75;;;6.00;99.90;;;;;;8375630;28;20036;-66
2021/10/16 07:37:46;;;;;;;14.82;10.23;;;6.20;99.90;;;;;;8362735;28;20109;-67
2021/10/16 07:41:47;;;;;;;16.75;10.10;;;6.30;99.90;;;;;;8362410;28;20033;-67
2021/10/16 07:45:47;;;;;;;13.20;9.07;;;6.50;99.90;;;;;;8367953;28;20032;-67
2021/10/16 07:49:48;;;;;;;13.05;8.07;;;6.60;99.90;;;;;;8394325;28;20040;-67
2021/10/16 07:53:48;;;;;;;16.25;10.18;;;6.80;99.90;;;;;;8392629;28;20020;-67
2021/10/16 07:57:49;;;;;;;15.27;10.68;;;7.00;99.90;;;;;;8395418;28;20059;-67
2021/10/16 08:01:49;;;;;;;15.63;10.30;;;7.20;99.90;;;;;;8395888;28;20064;-67
2021/10/16 08:05:50;;;;;;;15.68;10.27;;;7.40;99.90;;;;;;8394995;28;20090;-67
2021/10/16 08:09:50;;;;;;;13.07;9.77;;;7.60;99.90;;;;;;8394932;28;20020;-67
2021/10/16 08:13:51;;;;;;;10.88;8.48;;;7.80;99.90;;;;;;8394654;28;20041;-67
2021/10/16 08:17:51;;;;;;;11.00;8.25;;;7.90;99.90;;;;;;8394459;28;20029;-67
2021/10/16 08:21:52;;;;;;;12.07;9.02;;;8.10;99.90;;;;;;8394605;28;20036;-67
2021/10/16 08:25:53;;;;;;;11.05;8.13;;;8.20;99.90;;;;;;8394171;28;20486;-67
2021/10/16 08:29:54;;;;;;;76.32;64.05;;;8.40;99.90;;;;;;8392542;28;20487;-67
2021/10/16 08:33:54;;;;;;;13.20;8.27;;;8.60;99.90;;;;;;8379033;28;20028;-67
2021/10/16 08:37:55;;;;;;;15.88;10.02;;;8.90;99.90;;;;;;8376073;28;20028;-67
2021/10/16 08:41:56;;;;;;;17.83;11.50;;;9.40;99.90;;;;;;8376566;28;20521;-67
2021/10/16 08:46:01;;;;;;;17.33;11.93;;;9.70;99.90;;;;;;8376366;28;20017;-67
2021/10/16 08:50:05;;;;;;;21.92;13.05;;;9.90;99.90;;;;;;8375160;28;20017;-67
2021/10/16 08:54:06;;;;;;;19.63;11.70;;;10.00;99.90;;;;;;8379505;28;20028;-67
2021/10/16 08:58:07;;;;;;;22.67;12.77;;;10.30;99.90;;;;;;8378539;28;20056;-67
2021/10/16 09:02:08;;;;;;;21.50;13.68;;;10.60;99.90;;;;;;8392118;28;20025;-67
2021/10/16 09:06:13;;;;;;;22.13;12.90;;;11.00;99.90;;;;;;8381567;28;20031;-67
2021/10/16 09:10:24;;;;;;;22.00;13.10;;;11.20;99.90;;;;;;8374513;28;20059;-67
2021/10/16 09:14:28;;;;;;;23.05;13.55;;;11.60;99.90;;;;;;8375415;28;20395;-67
2021/10/16 09:18:29;;;;;;;23.17;14.90;;;12.20;99.90;;;;;;8375291;28;20030;-67
2021/10/16 09:22:29;;;;;;;20.60;13.30;;;12.30;99.90;;;;;;8375387;28;20078;-68
2021/10/16 09:26:31;;;;;;;21.40;14.10;;;12.60;99.90;;;;;;8373941;28;20017;-67
2021/10/16 09:30:32;;;;;;;23.52;14.38;;;12.80;99.90;;;;;;8363806;28;20020;-67
2021/10/16 09:34:35;;;;;;;22.92;14.27;;;13.00;99.90;;;;;;8363935;28;20044;-67
2021/10/16 09:38:40;;;;;;;20.42;14.30;;;13.10;99.90;;;;;;8370095;28;20059;-67
2021/10/16 09:42:43;;;;;;;24.08;14.35;;;13.20;99.90;;;;;;8374977;28;20758;-67
2021/10/16 09:47:03;;;;;;;23.05;13.02;;;13.40;99.90;;;;;;8373176;28;20021;-68
2021/10/16 09:51:03;;;;;;;20.83;14.93;;;13.60;99.90;;;;;;8375006;28;20025;-67
2021/10/16 09:55:06;;;;;;;24.05;15.63;;;13.70;99.90;;;;;;8374441;28;20449;-67
2021/10/16 09:59:09;;;;;;;22.10;15.68;;;13.60;99.90;;;;;;8372843;28;20489;-67
2021/10/16 10:03:14;;;;;;;22.60;14.48;;;13.50;99.90;;;;;;8368441;28;20147;-67
2021/10/16 10:07:18;;;;;;;21.75;14.27;;;13.80;99.90;;;;;;8358547;28;20032;-67
2021/10/16 10:11:20;;;;;;;19.50;13.88;;;14.10;99.90;;;;;;8359194;28;20395;-68
2021/10/16 10:15:20;;;;;;;17.95;10.95;;;14.40;99.90;;;;;;8364881;28;20040;-67
2021/10/16 10:19:22;;;;;;;15.30;10.70;;;15.00;99.90;;;;;;8364721;28;20060;-67
2021/10/16 10:23:24;;;;;;;15.13;10.00;;;16.00;99.90;;;;;;8365092;28;20033;-68
2021/10/16 10:27:25;;;;;;;437.20;364.65;;;16.30;99.90;;;;;;8392199;28;20024;-68
2021/10/16 10:31:44;;;;;;;278.25;257.60;;;17.50;99.90;;;;;;8371360;28;20110;-67
2021/10/16 10:36:00;;;;;;;431.88;394.30;;;18.00;99.90;;;;;;8387788;28;20040;-68
2021/10/16 10:40:01;;;;;;;344.70;308.38;;;17.80;99.90;;;;;;8380518;28;20495;-68
2021/10/16 10:44:02;;;;;;;;;;;20.20;99.90;;;;;;8389865;28;20031;-66
2021/10/16 10:48:10;;;;;;;;;;;22.40;99.90;;;;;;8374158;28;20321;-66
2021/10/16 10:52:11;;;;;;;;;;;24.80;96.50;;;;;;8365501;28;20015;-66
2021/10/16 10:56:18;;;;;;;;;;;26.50;84.90;;;;;;8372470;28;19970;-66
2021/10/16 11:00:39;;;;;;;;;;;28.20;75.10;;;;;;8375340;28;20417;-65
2021/10/16 11:04:40;;;;;;;;;;;28.40;64.10;;;;;;8377951;28;19975;-66
2021/10/16 11:08:40;;;;;;;;;;;26.10;69.00;;;;;;8379702;28;20288;-66
2021/10/16 11:12:42;;;;;;;;;;;23.90;75.80;;;;;;8377661;28;20017;-66
2021/10/16 11:16:52;;;;;;;;;;;25.00;74.40;;;;;;8376753;28;19913;-66
2021/10/16 11:20:54;;;;;;;;;;;23.30;77.50;;;;;;8391061;28;20339;-66
2021/10/16 11:25:00;;;;;;;;;;;20.80;88.40;;;;;;8378453;28;19924;-66
2021/10/16 11:29:01;;;;;;;;;;;19.30;93.10;;;;;;8365665;28;19971;-67
2021/10/16 11:33:03;;;;;;;;;;;18.50;95.80;;;;;;8359884;28;19909;-67
2021/10/16 11:37:03;;;;;;;;;;;21.60;93.00;;;;;;8361854;28;20019;-67
2021/10/16 11:41:06;;;;;;;;;;;20.70;92.20;;;;;;8363453;28;19917;-67
2021/10/16 11:45:11;;;;;;;;;;;19.40;94.70;;;;;;8361003;28;19913;-67
2021/10/16 11:49:13;;;;;;;;;;;20.00;96.00;;;;;;8361180;28;19920;-67
2021/10/16 11:53:16;;;;;;;;;;;22.90;96.50;;;;;;8381517;28;19913;-67
2021/10/16 11:57:26;;;;;;;;;;;23.90;88.70;;;;;;8394197;28;19958;-67
2021/10/16 12:01:30;;;;;;;;;;;27.10;75.60;;;;;;8392990;28;19909;-67
2021/10/16 12:05:30;;;;;;;;;;;27.40;70.70;;;;;;8394232;28;19952;-67
2021/10/16 12:09:31;;;;;;;;;;;27.50;67.10;;;;;;8388077;28;20401;-67
2021/10/16 12:38:08;;;;;;;;;;;29.00;57.70;;;;;;8474718;27;20387;-64
2021/10/16 12:42:26;;;;;;;13.10;8.60;;;19.30;90.40;;;;;;8486303;27;20002;-64
2021/10/16 12:46:29;;;;;;;10.77;8.00;;;18.50;92.70;;;;;;8485930;27;20023;-64
2021/10/16 12:50:49;;;;;;;11.18;6.95;;;18.40;94.00;;;;;;8423624;22;20498;-65
2021/10/16 12:54:50;;;;;;;8.57;6.78;;;20.00;90.60;;;;;;8385083;28;20050;-66
2021/10/16 12:58:52;;;;;;;11.75;7.20;;;20.30;90.30;;;;;;8385196;28;20074;-66
2021/10/16 13:02:53;;;;;;;10.10;7.57;;;22.00;87.00;;;;;;8383924;28;20033;-66
2021/10/16 13:06:53;;;;;;;12.25;7.90;;;26.20;74.40;;;;;;8384223;28;20033;-66
2021/10/16 13:10:54;;;;;;;10.68;7.43;;;29.00;60.20;;;;;;8384494;28;20086;-66
2021/10/16 13:14:54;;;;;;;9.88;7.35;;;25.90;65.10;;;;;;8383903;28;20060;-66
2021/10/16 13:18:55;;;;;;;11.63;8.38;;;27.20;65.30;;;;;;8386113;28;20029;-66
2021/10/16 13:22:55;;;;;;;11.13;7.97;;;29.90;58.10;;;;;;8385578;28;20024;-67
2021/10/16 13:26:56;;;;;;;11.32;8.02;;;32.30;53.70;;;;;;8384825;28;20051;-66
2021/10/16 13:30:56;;;;;;;13.20;9.27;;;33.70;49.20;;;;;;8385661;28;20020;-66
2021/10/16 13:34:58;;;;;;;10.80;8.90;;;35.10;46.20;;;;;;8385199;28;20025;-66
2021/10/16 13:38:59;;;;;;;10.95;9.40;;;32.00;47.20;;;;;;8363882;28;20116;-66
2021/10/16 13:43:00;;;;;;;12.02;9.18;;;25.90;57.60;;;;;;8363320;28;20085;-66
2021/10/16 13:47:00;;;;;;;12.65;10.52;;;22.40;69.40;;;;;;8362825;28;20514;-65
2021/10/16 13:51:01;;;;;;;15.23;10.00;;;20.40;77.90;;;;;;8359545;28;20044;-65
2021/10/16 13:55:02;;;;;;;14.20;9.88;;;18.70;86.70;;;;;;8359678;28;20040;-66
2021/10/16 13:59:02;;;;;;;12.82;9.95;;;18.80;91.20;;;;;;8362501;28;20064;-65
2021/10/16 14:03:03;;;;;;;13.00;9.77;;;18.90;91.10;;;;;;8358096;28;20091;-65
2021/10/16 14:07:03;;;;;;;13.45;10.32;;;18.60;91.60;;;;;;8362342;28;20109;-65
2021/10/16 14:11:04;;;;;;;13.30;9.43;;;17.90;93.30;;;;;;8362367;28;20017;-65
2021/10/16 14:15:05;;;;;;;13.43;9.65;;;17.20;94.40;;;;;;8362096;28;20032;-65
2021/10/16 14:19:06;;;;;;;12.73;10.15;;;16.80;96.40;;;;;;8360077;28;20380;-65
2021/10/16 14:23:06;;;;;;;13.23;9.95;;;16.60;98.30;;;;;;8352999;28;20025;-65
2021/10/16 14:27:07;;;;;;;13.63;10.23;;;16.60;98.90;;;;;;8345327;28;20025;-65
2021/10/16 14:31:08;;;;;;;13.77;10.43;;;16.50;99.90;;;;;;8355259;28;20095;-66
2021/10/16 14:35:08;;;;;;;13.20;9.80;;;16.20;99.90;;;;;;8358574;28;20029;-66
2021/10/16 14:39:09;;;;;;;13.57;9.52;;;16.00;99.90;;;;;;8354399;28;20508;-65
2021/10/16 14:43:10;;;;;;;12.75;9.55;;;15.90;99.90;;;;;;8346004;28;20037;-65
2021/10/16 14:47:10;;;;;;;13.48;9.30;;;15.80;99.90;;;;;;8344416;28;20498;-66
2021/10/16 14:51:11;;;;;;;12.27;9.20;;;15.70;99.90;;;;;;8341736;28;20021;-65
2021/10/16 14:55:11;;;;;;;13.75;8.85;;;15.80;99.90;;;;;;8351900;28;20037;-66
2021/10/16 14:59:12;;;;;;;13.40;9.95;;;15.60;99.90;;;;;;8357931;28;20021;-66
2021/10/16 15:03:13;;;;;;;12.55;8.57;;;15.40;99.90;;;;;;8357850;28;20037;-66
2021/10/16 15:07:13;;;;;;;14.02;9.48;;;15.00;99.90;;;;;;8334339;28;20037;-66
2021/10/16 15:11:14;;;;;;;12.90;10.00;;;14.80;99.90;;;;;;8323367;28;20021;-66
2021/10/16 15:15:14;;;;;;;14.40;9.32;;;14.50;99.90;;;;;;8334317;28;20052;-66
2021/10/16 15:19:15;;;;;;;12.98;9.82;;;14.30;99.90;;;;;;8340571;28;20032;-65
2021/10/16 15:23:16;;;;;;;13.85;9.02;;;13.90;99.90;;;;;;8339907;28;20607;-66
2021/10/16 15:27:16;;;;;;;12.65;9.07;;;13.80;99.90;;;;;;8344564;28;20040;-65
2021/10/16 15:31:17;;;;;;;10.68;8.38;;;13.70;99.90;;;;;;8340310;28;20547;-65
2021/10/16 15:35:18;;;;;;;14.25;9.48;;;13.60;99.90;;;;;;8356105;28;20435;-66
2021/10/16 15:39:19;;;;;;;13.55;9.40;;;13.50;99.90;;;;;;8357461;28;20029;-66
2021/10/16 15:43:20;;;;;;;11.88;9.20;;;13.20;99.90;;;;;;8359682;28;20244;-65
2021/10/16 15:47:20;;;;;;;13.13;8.98;;;13.10;99.90;;;;;;8359177;28;20021;-65
2021/10/16 15:51:21;;;;;;;13.38;9.20;;;12.80;99.90;;;;;;8359899;28;20174;-66
2021/10/16 15:55:22;;;;;;;12.98;9.23;;;12.60;99.90;;;;;;8357679;28;20094;-66
2021/10/16 15:59:23;;;;;;;12.88;9.15;;;12.30;99.90;;;;;;8358519;28;20029;-65
2021/10/16 16:03:24;;;;;;;14.63;9.77;;;12.10;99.90;;;;;;8359110;28;20083;-67
2021/10/16 16:07:24;;;;;;;13.15;8.93;;;11.90;99.90;;;;;;8356676;28;20025;-67
2021/10/16 16:11:25;;;;;;;11.55;8.70;;;11.80;99.90;;;;;;8358391;28;20052;-67
2021/10/16 16:15:25;;;;;;;14.85;9.40;;;11.40;99.90;;;;;;8356943;28;20129;-67
2021/10/16 16:19:26;;;;;;;17.08;9.77;;;11.00;99.90;;;;;;8356206;28;20040;-67
2021/10/16 16:23:29;;;;;;;14.68;9.27;;;10.70;99.90;;;;;;8356795;28;20029;-67
2021/10/16 16:27:30;;;;;;;15.70;9.70;;;10.80;99.90;;;;;;8358185;28;20025;-67
2021/10/16 16:31:30;;;;;;;14.88;9.20;;;10.80;99.90;;;;;;8358597;28;20504;-67
2021/10/16 16:35:31;;;;;;;11.98;8.65;;;10.60;99.90;;;;;;8354729;28;20025;-67
2021/10/16 16:39:31;;;;;;;12.68;9.63;;;10.00;99.90;;;;;;8357203;28;20597;-68
2021/10/16 16:43:32;;;;;;;15.52;9.98;;;10.20;99.90;;;;;;8357181;28;20087;-67
2021/10/16 16:47:33;;;;;;;13.38;9.50;;;9.90;99.90;;;;;;8345854;28;20518;-67
2021/10/16 16:51:34;;;;;;;14.38;9.50;;;10.00;99.90;;;;;;8355823;28;20397;-67
2021/10/16 16:55:34;;;;;;;13.95;9.40;;;9.50;99.90;;;;;;8357662;28;20043;-67
2021/10/16 16:59:35;;;;;;;14.05;8.18;;;9.20;99.90;;;;;;8352178;28;20025;-67
2021/10/16 17:03:35;;;;;;;16.90;9.27;;;9.10;99.90;;;;;;8353846;28;20055;-67
2021/10/16 17:07:36;;;;;;;14.60;8.85;;;9.20;99.90;;;;;;8355163;28;20025;-67
2021/10/16 17:11:38;;;;;;;19.83;9.68;;;9.40;99.90;;;;;;8358167;28;20063;-67
2021/10/16 17:15:38;;;;;;;14.88;8.93;;;9.30;99.90;;;;;;8363450;28;20102;-67
2021/10/16 17:19:39;;;;;;;16.48;9.10;;;9.30;99.90;;;;;;8362564;28;20033;-67
2021/10/16 17:23:40;;;;;;;13.55;8.73;;;9.30;99.90;;;;;;8360278;28;20060;-67
2021/10/16 17:27:40;;;;;;;13.27;8.98;;;9.30;99.90;;;;;;8360983;28;20459;-67
2021/10/16 17:31:41;;;;;;;15.35;8.68;;;9.30;99.90;;;;;;8362305;28;20366;-68
2021/10/16 17:35:42;;;;;;;16.25;9.50;;;9.40;99.90;;;;;;8362236;28;20450;-67
2021/10/16 17:39:43;;;;;;;15.35;10.05;;;9.40;99.90;;;;;;8362383;28;20087;-68
2021/10/16 17:43:46;;;;;;;20.75;11.07;;;9.30;99.90;;;;;;8361368;28;20544;-68
2021/10/16 17:47:47;;;;;;;17.48;11.00;;;9.00;99.90;;;;;;8360253;28;20160;-68
2021/10/16 17:51:47;;;;;;;18.38;11.15;;;9.00;99.90;;;;;;8361298;28;20020;-67
2021/10/16 17:55:48;;;;;;;16.80;9.57;;;9.10;99.90;;;;;;8346334;28;20022;-67
2021/10/16 17:59:49;;;;;;;15.50;10.52;;;9.00;99.90;;;;;;8349602;28;20025;-68
2021/10/16 18:03:50;;;;;;;14.75;9.70;;;9.10;99.90;;;;;;8346393;28;20576;-68
2021/10/16 18:07:50;;;;;;;15.07;10.23;;;8.90;99.90;;;;;;8343729;28;20063;-68
2021/10/16 18:11:51;;;;;;;17.23;10.98;;;8.80;99.90;;;;;;8343287;28;20109;-67
2021/10/16 18:15:52;;;;;;;16.75;10.15;;;9.00;99.90;;;;;;8338116;28;20036;-67
2021/10/16 18:19:52;;;;;;;16.42;11.13;;;8.70;99.90;;;;;;8332332;28;20029;-68
2021/10/16 18:23:53;;;;;;;14.20;9.95;;;8.60;99.90;;;;;;8330544;28;20508;-67
2021/10/16 18:27:53;;;;;;;17.20;9.65;;;8.50;99.90;;;;;;8337731;28;20124;-67
2021/10/16 18:31:54;;;;;;;15.43;9.73;;;8.60;99.90;;;;;;8357707;28;20031;-68
2021/10/16 18:35:54;;;;;;;16.20;10.55;;;8.70;99.90;;;;;;8357957;28;20029;-68
2021/10/16 18:39:55;;;;;;;17.30;11.35;;;8.70;99.90;;;;;;8336127;28;20032;-67
2021/10/16 18:43:56;;;;;;;15.35;10.13;;;8.70;99.90;;;;;;8324694;28;20428;-68
2021/10/16 18:47:56;;;;;;;19.05;11.40;;;8.80;99.90;;;;;;8326569;28;20221;-68
2021/10/16 18:51:57;;;;;;;20.20;11.93;;;8.80;99.90;;;;;;8323525;28;20026;-67
2021/10/16 18:55:57;;;;;;;16.33;11.07;;;8.70;99.90;;;;;;8341815;28;20040;-68
2021/10/16 18:59:59;;;;;;;15.80;10.18;;;8.50;99.90;;;;;;8356366;28;20029;-68
2021/10/16 19:04:00;;;;;;;15.10;9.15;;;8.40;99.90;;;;;;8356081;28;20123;-67
2021/10/16 19:08:00;;;;;;;15.68;9.05;;;8.40;99.90;;;;;;8355471;28;20033;-67
2021/10/16 19:12:01;;;;;;;12.57;8.90;;;8.30;99.90;;;;;;8355415;28;20025;-67
2021/10/16 19:16:01;;;;;;;15.75;9.52;;;8.20;99.90;;;;;;8355206;28;20025;-68
2021/10/16 19:20:02;;;;;;;12.93;9.23;;;8.40;99.90;;;;;;8339091;28;20040;-67
2021/10/16 19:24:03;;;;;;;16.75;11.27;;;8.50;99.90;;;;;;8347923;28;20110;-68
2021/10/16 19:28:04;;;;;;;16.50;10.20;;;8.20;99.90;;;;;;8354556;28;20146;-68
2021/10/16 19:32:06;;;;;;;17.95;10.95;;;8.10;99.90;;;;;;8356377;28;20025;-68
2021/10/16 19:36:07;;;;;;;17.15;10.65;;;8.10;99.90;;;;;;8354165;28;20393;-67
2021/10/16 19:40:08;;;;;;;17.35;10.77;;;8.10;99.90;;;;;;8356208;28;20029;-68
2021/10/16 19:44:12;;;;;;;14.27;10.05;;;8.20;99.90;;;;;;8355077;28;20636;-68
2021/10/16 19:48:13;;;;;;;18.63;11.43;;;8.00;99.90;;;;;;8354000;28;20540;-68
2021/10/16 19:52:13;;;;;;;15.25;10.27;;;7.80;99.90;;;;;;8354823;28;20032;-68
2021/10/16 19:56:14;;;;;;;16.38;10.57;;;7.70;99.90;;;;;;8331573;28;20029;-68
2021/10/16 20:00:16;;;;;;;19.45;11.25;;;7.80;99.90;;;;;;8354168;28;20139;-67
2021/10/16 20:04:17;;;;;;;17.52;11.20;;;7.90;99.90;;;;;;8350357;28;20184;-68
2021/10/16 20:08:17;;;;;;;21.63;13.60;;;7.60;99.90;;;;;;8330811;28;20021;-67
2021/10/16 20:12:20;;;;;;;24.40;15.25;;;7.60;99.90;;;;;;8320989;28;20095;-68
2021/10/16 20:16:20;;;;;;;21.85;14.18;;;7.30;99.90;;;;;;8320752;28;20044;-67
2021/10/16 20:20:21;;;;;;;27.13;17.48;;;7.20;99.90;;;;;;8322021;28;20028;-67
2021/10/16 20:24:22;;;;;;;27.35;16.35;;;7.30;99.90;;;;;;8320743;28;20210;-68
2021/10/16 20:28:24;;;;;;;19.83;13.50;;;7.40;99.90;;;;;;8338427;28;20444;-67
2021/10/16 20:32:25;;;;;;;24.60;16.33;;;7.40;99.90;;;;;;8347341;28;20036;-68
2021/10/16 20:36:26;;;;;;;24.67;15.98;;;7.40;99.90;;;;;;8351283;28;20021;-67
2021/10/16 20:40:26;;;;;;;24.55;15.60;;;7.40;99.90;;;;;;8354251;28;20021;-67
2021/10/16 20:44:27;;;;;;;24.25;16.13;;;7.30;99.90;;;;;;8352522;28;20605;-67
2021/10/16 20:48:28;;;;;;;32.50;19.02;;;7.50;99.90;;;;;;8358128;28;20207;-67
2021/10/16 20:52:28;;;;;;;45.42;24.42;;;7.20;99.90;;;;;;8356721;28;20116;-67
2021/10/16 20:56:29;;;;;;;32.28;18.85;;;7.20;99.90;;;;;;8330286;28;20465;-67
2021/10/16 21:00:29;;;;;;;30.92;18.20;;;7.10;99.90;;;;;;8358454;28;20025;-67
2021/10/16 21:04:30;;;;;;;26.83;15.85;;;7.00;99.90;;;;;;8364262;28;20099;-67
2021/10/16 21:08:30;;;;;;;31.55;18.15;;;7.00;99.90;;;;;;8364173;28;20056;-67
2021/10/16 21:12:31;;;;;;;27.65;17.83;;;7.00;99.90;;;;;;8362540;28;20029;-67
2021/10/16 21:16:33;;;;;;;23.67;16.88;;;7.10;99.90;;;;;;8362707;28;20637;-67